sensor_id;sensor_type;location;lat;lon;timestamp;temperature;humidity
38084;DHT22;23894;51.466;7.444;2023-01-08T15:07:25;10.60;99.90
38084;DHT22;23894;51.466;7.444;2023-01-08T15:09:31;10.70;99.90
38084;DHT22;23894;51.466;7.444;2023-01-08T15:11:52;10.70;99.90
38084;DHT22;23894;51.466;7.444;2023-01-08T15:13:53;10.60;99.90
38084;DHT22;23894;51.466;7.444;2023-01-08T15:18:11;10.50;99.90
38084;DHT22;23894;51.466;7.444;2023-01-08T15:20:19;10.50;99.90
38084;DHT22;23894;51.466;7.444;2023-01-08T15:22:33;10.40;99.90
38084;DHT22;23894;51.466;7.444;2023-01-08T15:24:40;10.40;99.90
38084;DHT22;23894;51.466;7.444;2023-01-08T15:26:43;10.30;99.90
38084;DHT22;23894;51.466;7.444;2023-01-08T15:29:03;10.30;99.90
38084;DHT22;23894;51.466;7.444;2023-01-08T15:31:23;10.30;99.90
38084;DHT22;23894;51.466;7.444;2023-01-08T15:33:24;10.20;99.90
38084;DHT22;23894;51.466;7.444;2023-01-08T15:35:25;10.20;99.90
38084;DHT22;23894;51.466;7.444;2023-01-08T15:37:26;10.20;99.90
38084;DHT22;23894;51.466;7.444;2023-01-08T15:39:29;10.20;99.90
38084;DHT22;23894;51.466;7.444;2023-01-08T15:41:34;10.20;99.90
38084;DHT22;23894;51.466;7.444;2023-01-08T15:43:53;10.20;99.90
38084;DHT22;23894;51.466;7.444;2023-01-08T15:45:54;10.30;99.90
38084;DHT22;23894;51.466;7.444;2023-01-08T15:47:55;10.30;99.90
38084;DHT22;23894;51.466;7.444;2023-01-08T15:49:55;10.30;99.90
38084;DHT22;23894;51.466;7.444;2023-01-08T15:51:56;10.30;99.90
38084;DHT22;23894;51.466;7.444;2023-01-08T15:53:59;10.20;99.90
38084;DHT22;23894;51.466;7.444;2023-01-08T15:56:06;10.30;99.90
38084;DHT22;23894;51.466;7.444;2023-01-08T15:58:09;10.30;99.90
38084;DHT22;23894;51.466;7.444;2023-01-08T16:00:15;10.30;99.90
38084;DHT22;23894;51.466;7.444;2023-01-08T16:02:16;10.30;99.90
38084;DHT22;23894;51.466;7.444;2023-01-08T16:04:17;10.30;99.90
38084;DHT22;23894;51.466;7.444;2023-01-08T16:06:17;10.30;99.90
38084;DHT22;23894;51.466;7.444;2023-01-08T16:08:18;10.20;99.90
38084;DHT22;23894;51.466;7.444;2023-01-08T16:10:20;10.30;99.90
38084;DHT22;23894;51.466;7.444;2023-01-08T16:12:21;10.30;99.90
38084;DHT22;23894;51.466;7.444;2023-01-08T16:14:22;10.20;99.90
38084;DHT22;23894;51.466;7.444;2023-01-08T16:16:22;10.20;99.90
38084;DHT22;23894;51.466;7.444;2023-01-08T16:18:23;10.20;99.90
38084;DHT22;23894;51.466;7.444;2023-01-08T16:20:24;10.20;99.90
38084;DHT22;23894;51.466;7.444;2023-01-08T16:22:24;10.20;99.90
38084;DHT22;23894;51.466;7.444;2023-01-08T16:24:25;10.20;99.90
38084;DHT22;23894;51.466;7.444;2023-01-08T16:26:25;10.20;99.90
38084;DHT22;23894;51.466;7.444;2023-01-08T16:28:26;10.20;99.90
38084;DHT22;23894;51.466;7.444;2023-01-08T16:30:29;10.10;99.90
38084;DHT22;23894;51.466;7.444;2023-01-08T16:32:30;10.10;99.90
38084;DHT22;23894;51.466;7.444;2023-01-08T16:34:31;10.10;99.90
38084;DHT22;23894;51.466;7.444;2023-01-08T16:36:31;10.10;99.90
38084;DHT22;23894;51.466;7.444;2023-01-08T16:38:33;10.10;99.90
38084;DHT22;23894;51.466;7.444;2023-01-08T16:40:38;10.10;99.90
38084;DHT22;23894;51.466;7.444;2023-01-08T16:42:40;10.10;99.90
38084;DHT22;23894;51.466;7.444;2023-01-08T16:44:41;10.10;99.90
38084;DHT22;23894;51.466;7.444;2023-01-08T16:46:44;10.10;99.90
38084;DHT22;23894;51.466;7.444;2023-01-08T16:48:45;10.10;99.90
38084;DHT22;23894;51.466;7.444;2023-01-08T16:50:49;10.10;99.90
38084;DHT22;23894;51.466;7.444;2023-01-08T16:52:49;10.10;99.90
38084;DHT22;23894;51.466;7.444;2023-01-08T16:54:51;10.20;99.90
38084;DHT22;23894;51.466;7.444;2023-01-08T16:56:52;10.20;99.90
38084;DHT22;23894;51.466;7.444;2023-01-08T16:58:53;10.10;99.90
38084;DHT22;23894;51.466;7.444;2023-01-08T17:00:54;10.10;99.90
38084;DHT22;23894;51.466;7.444;2023-01-08T17:02:56;10.00;99.90
38084;DHT22;23894;51.466;7.444;2023-01-08T17:04:57;10.00;99.90
38084;DHT22;23894;51.466;7.444;2023-01-08T17:06:57;10.00;99.90
38084;DHT22;23894;51.466;7.444;2023-01-08T17:09:01;9.90;99.90
38084;DHT22;23894;51.466;7.444;2023-01-08T17:11:09;9.90;99.90
38084;DHT22;23894;51.466;7.444;2023-01-08T17:13:10;9.90;99.90
38084;DHT22;23894;51.466;7.444;2023-01-08T17:15:11;9.90;99.90
38084;DHT22;23894;51.466;7.444;2023-01-08T17:17:12;9.80;99.90
38084;DHT22;23894;51.466;7.444;2023-01-08T17:19:12;9.80;99.90
38084;DHT22;23894;51.466;7.444;2023-01-08T17:21:14;9.80;99.90
38084;DHT22;23894;51.466;7.444;2023-01-08T17:23:18;9.70;99.90
38084;DHT22;23894;51.466;7.444;2023-01-08T17:25:18;9.70;99.90
38084;DHT22;23894;51.466;7.444;2023-01-08T17:27:19;9.70;99.90
38084;DHT22;23894;51.466;7.444;2023-01-08T17:29:20;9.70;99.90
38084;DHT22;23894;51.466;7.444;2023-01-08T17:31:21;9.70;99.90
38084;DHT22;23894;51.466;7.444;2023-01-08T17:33:24;9.70;99.90
38084;DHT22;23894;51.466;7.444;2023-01-08T17:35:29;9.70;99.90
38084;DHT22;23894;51.466;7.444;2023-01-08T17:37:31;9.60;99.90
38084;DHT22;23894;51.466;7.444;2023-01-08T17:39:32;9.60;99.90
38084;DHT22;23894;51.466;7.444;2023-01-08T17:41:33;9.60;99.90
38084;DHT22;23894;51.466;7.444;2023-01-08T17:43:55;9.50;99.90
38084;DHT22;23894;51.466;7.444;2023-01-08T17:45:55;9.50;99.90
38084;DHT22;23894;51.466;7.444;2023-01-08T17:48:00;9.50;99.90
38084;DHT22;23894;51.466;7.444;2023-01-08T17:50:02;9.50;99.90
38084;DHT22;23894;51.466;7.444;2023-01-08T17:52:07;9.50;99.90
38084;DHT22;23894;51.466;7.444;2023-01-08T17:54:13;9.50;99.90
38084;DHT22;23894;51.466;7.444;2023-01-08T17:56:17;9.50;99.90
38084;DHT22;23894;51.466;7.444;2023-01-08T17:58:20;9.40;99.90
38084;DHT22;23894;51.466;7.444;2023-01-08T18:00:21;9.40;99.90
38084;DHT22;23894;51.466;7.444;2023-01-08T18:02:22;9.50;99.90
38084;DHT22;23894;51.466;7.444;2023-01-08T18:04:23;9.40;99.90
38084;DHT22;23894;51.466;7.444;2023-01-08T18:06:24;9.40;99.90
38084;DHT22;23894;51.466;7.444;2023-01-08T18:14:59;9.40;99.90
38084;DHT22;23894;51.466;7.444;2023-01-08T18:16:59;9.30;99.90
38084;DHT22;23894;51.466;7.444;2023-01-08T18:19:00;9.40;99.90
38084;DHT22;23894;51.466;7.444;2023-01-08T18:21:00;9.30;99.90
38084;DHT22;23894;51.466;7.444;2023-01-08T18:23:01;9.40;99.90
38084;DHT22;23894;51.466;7.444;2023-01-08T18:25:01;9.30;99.90
38084;DHT22;23894;51.466;7.444;2023-01-08T18:27:02;9.30;99.90
38084;DHT22;23894;51.466;7.444;2023-01-08T18:29:03;9.30;99.90
38084;DHT22;23894;51.466;7.444;2023-01-08T18:31:08;9.30;99.90
38084;DHT22;23894;51.466;7.444;2023-01-08T18:33:09;9.30;99.90
38084;DHT22;23894;51.466;7.444;2023-01-08T18:35:10;9.30;99.90
38084;DHT22;23894;51.466;7.444;2023-01-08T18:37:12;9.30;99.90
38084;DHT22;23894;51.466;7.444;2023-01-08T18:39:13;9.30;99.90
38084;DHT22;23894;51.466;7.444;2023-01-08T18:41:16;9.30;99.90
38084;DHT22;23894;51.466;7.444;2023-01-08T18:43:35;9.30;99.90
38084;DHT22;23894;51.466;7.444;2023-01-08T18:45:37;9.20;99.90
38084;DHT22;23894;51.466;7.444;2023-01-08T18:47:38;9.20;99.90
38084;DHT22;23894;51.466;7.444;2023-01-08T18:49:38;9.20;99.90
38084;DHT22;23894;51.466;7.444;2023-01-08T18:51:39;9.20;99.90
38084;DHT22;23894;51.466;7.444;2023-01-08T18:53:40;9.20;99.90
38084;DHT22;23894;51.466;7.444;2023-01-08T18:55:40;9.20;99.90
38084;DHT22;23894;51.466;7.444;2023-01-08T18:57:41;9.20;99.90
38084;DHT22;23894;51.466;7.444;2023-01-08T18:59:44;9.20;99.90
38084;DHT22;23894;51.466;7.444;2023-01-08T19:01:44;9.10;99.90
38084;DHT22;23894;51.466;7.444;2023-01-08T19:03:45;9.10;99.90
38084;DHT22;23894;51.466;7.444;2023-01-08T19:05:45;9.10;99.90
38084;DHT22;23894;51.466;7.444;2023-01-08T19:07:46;9.10;99.90
38084;DHT22;23894;51.466;7.444;2023-01-08T19:09:46;9.10;99.90
38084;DHT22;23894;51.466;7.444;2023-01-08T19:11:47;9.10;99.90
38084;DHT22;23894;51.466;7.444;2023-01-08T19:13:48;9.10;99.90
38084;DHT22;23894;51.466;7.444;2023-01-08T19:15:48;9.10;99.90
38084;DHT22;23894;51.466;7.444;2023-01-08T19:17:49;9.10;99.90
38084;DHT22;23894;51.466;7.444;2023-01-08T19:19:49;9.10;99.90
38084;DHT22;23894;51.466;7.444;2023-01-08T19:21:50;9.10;99.90
38084;DHT22;23894;51.466;7.444;2023-01-08T19:23:52;9.00;99.90
38084;DHT22;23894;51.466;7.444;2023-01-08T19:25:53;9.00;99.90
38084;DHT22;23894;51.466;7.444;2023-01-08T19:27:53;9.00;99.90
38084;DHT22;23894;51.466;7.444;2023-01-08T19:29:54;9.00;99.90
38084;DHT22;23894;51.466;7.444;2023-01-08T19:31:54;9.10;99.90
38084;DHT22;23894;51.466;7.444;2023-01-08T19:33:59;9.10;99.90
38084;DHT22;23894;51.466;7.444;2023-01-08T19:36:04;9.00;99.90
38084;DHT22;23894;51.466;7.444;2023-01-08T19:38:12;9.10;99.90
38084;DHT22;23894;51.466;7.444;2023-01-08T19:40:12;9.00;99.90
38084;DHT22;23894;51.466;7.444;2023-01-08T19:42:13;9.00;99.90
38084;DHT22;23894;51.466;7.444;2023-01-08T19:44:32;9.00;99.90
38084;DHT22;23894;51.466;7.444;2023-01-08T19:46:32;9.00;99.90
38084;DHT22;23894;51.466;7.444;2023-01-08T19:48:33;9.00;99.90
38084;DHT22;23894;51.466;7.444;2023-01-08T19:50:37;9.00;99.90
38084;DHT22;23894;51.466;7.444;2023-01-08T19:52:38;9.00;99.90
38084;DHT22;23894;51.466;7.444;2023-01-08T19:54:39;9.00;99.90
38084;DHT22;23894;51.466;7.444;2023-01-08T19:56:39;9.00;99.90
38084;DHT22;23894;51.466;7.444;2023-01-08T19:58:40;9.00;99.90
38084;DHT22;23894;51.466;7.444;2023-01-08T20:00:41;9.00;99.90
38084;DHT22;23894;51.466;7.444;2023-01-08T20:02:42;9.10;99.90
38084;DHT22;23894;51.466;7.444;2023-01-08T20:04:42;9.10;99.90
38084;DHT22;23894;51.466;7.444;2023-01-08T20:06:43;9.10;99.90
38084;DHT22;23894;51.466;7.444;2023-01-08T20:08:44;9.20;99.90
38084;DHT22;23894;51.466;7.444;2023-01-08T20:10:45;9.20;99.90
38084;DHT22;23894;51.466;7.444;2023-01-08T20:12:46;9.20;99.90
38084;DHT22;23894;51.466;7.444;2023-01-08T20:14:46;9.30;99.90
38084;DHT22;23894;51.466;7.444;2023-01-08T20:16:47;9.30;99.90
38084;DHT22;23894;51.466;7.444;2023-01-08T20:18:48;9.30;99.90
38084;DHT22;23894;51.466;7.444;2023-01-08T20:20:49;9.40;99.90
38084;DHT22;23894;51.466;7.444;2023-01-08T20:22:49;9.40;99.90
38084;DHT22;23894;51.466;7.444;2023-01-08T20:24:50;9.40;99.90
38084;DHT22;23894;51.466;7.444;2023-01-08T20:26:52;9.40;99.90
38084;DHT22;23894;51.466;7.444;2023-01-08T20:28:55;9.40;99.90
38084;DHT22;23894;51.466;7.444;2023-01-08T20:30:55;9.40;99.90
38084;DHT22;23894;51.466;7.444;2023-01-08T20:32:56;9.40;99.90
38084;DHT22;23894;51.466;7.444;2023-01-08T20:34:56;9.50;99.90
38084;DHT22;23894;51.466;7.444;2023-01-08T20:36:57;9.40;99.90
38084;DHT22;23894;51.466;7.444;2023-01-08T20:39:01;9.50;99.90
38084;DHT22;23894;51.466;7.444;2023-01-08T20:41:02;9.50;99.90
38084;DHT22;23894;51.466;7.444;2023-01-08T20:43:04;9.40;99.90
38084;DHT22;23894;51.466;7.444;2023-01-08T20:45:05;9.40;99.90
38084;DHT22;23894;51.466;7.444;2023-01-08T20:47:05;9.40;99.90
38084;DHT22;23894;51.466;7.444;2023-01-08T20:49:10;9.40;99.90
38084;DHT22;23894;51.466;7.444;2023-01-08T20:51:11;9.40;99.90
38084;DHT22;23894;51.466;7.444;2023-01-08T20:53:12;9.40;99.90
38084;DHT22;23894;51.466;7.444;2023-01-08T20:55:13;9.40;99.90
38084;DHT22;23894;51.466;7.444;2023-01-08T20:57:14;9.40;99.90
38084;DHT22;23894;51.466;7.444;2023-01-08T20:59:15;9.40;99.90
38084;DHT22;23894;51.466;7.444;2023-01-08T21:01:19;9.30;99.90
38084;DHT22;23894;51.466;7.444;2023-01-08T21:03:20;9.30;99.90
38084;DHT22;23894;51.466;7.444;2023-01-08T21:05:20;9.40;99.90
38084;DHT22;23894;51.466;7.444;2023-01-08T21:07:21;9.30;99.90
38084;DHT22;23894;51.466;7.444;2023-01-08T21:09:21;9.40;99.90
38084;DHT22;23894;51.466;7.444;2023-01-08T21:11:23;9.40;99.90
38084;DHT22;23894;51.466;7.444;2023-01-08T21:13:24;9.40;99.90
38084;DHT22;23894;51.466;7.444;2023-01-08T21:15:24;9.40;99.90
38084;DHT22;23894;51.466;7.444;2023-01-08T21:17:25;9.40;99.90
38084;DHT22;23894;51.466;7.444;2023-01-08T21:19:25;9.40;99.90
38084;DHT22;23894;51.466;7.444;2023-01-08T21:21:29;9.50;99.90
38084;DHT22;23894;51.466;7.444;2023-01-08T21:23:32;9.40;99.90
38084;DHT22;23894;51.466;7.444;2023-01-08T21:25:32;9.40;99.90
38084;DHT22;23894;51.466;7.444;2023-01-08T21:27:34;9.50;99.90
38084;DHT22;23894;51.466;7.444;2023-01-08T21:29:35;9.50;99.90
38084;DHT22;23894;51.466;7.444;2023-01-08T21:31:36;9.50;99.90
38084;DHT22;23894;51.466;7.444;2023-01-08T21:33:37;9.50;99.90
38084;DHT22;23894;51.466;7.444;2023-01-08T21:35:38;9.50;99.90
38084;DHT22;23894;51.466;7.444;2023-01-08T21:37:38;9.50;99.90
38084;DHT22;23894;51.466;7.444;2023-01-08T21:39:39;9.60;99.90
38084;DHT22;23894;51.466;7.444;2023-01-08T21:41:40;9.60;99.90
38084;DHT22;23894;51.466;7.444;2023-01-08T21:44:00;9.60;99.90
38084;DHT22;23894;51.466;7.444;2023-01-08T21:46:23;9.60;99.90
38084;DHT22;23894;51.466;7.444;2023-01-08T21:48:24;9.60;99.90
38084;DHT22;23894;51.466;7.444;2023-01-08T21:50:25;9.60;99.90
38084;DHT22;23894;51.466;7.444;2023-01-08T21:52:25;9.60;99.90
38084;DHT22;23894;51.466;7.444;2023-01-08T21:54:44;9.60;99.90
38084;DHT22;23894;51.466;7.444;2023-01-08T21:56:45;9.60;99.90
38084;DHT22;23894;51.466;7.444;2023-01-08T21:58:46;9.70;99.90
38084;DHT22;23894;51.466;7.444;2023-01-08T22:00:46;9.70;99.90
38084;DHT22;23894;51.466;7.444;2023-01-08T22:02:47;9.70;99.90
38084;DHT22;23894;51.466;7.444;2023-01-08T22:04:47;9.70;99.90
38084;DHT22;23894;51.466;7.444;2023-01-08T22:06:48;9.70;99.90
38084;DHT22;23894;51.466;7.444;2023-01-08T22:08:52;9.70;99.90
38084;DHT22;23894;51.466;7.444;2023-01-08T22:10:53;9.80;99.90
38084;DHT22;23894;51.466;7.444;2023-01-08T22:12:54;9.80;99.90
38084;DHT22;23894;51.466;7.444;2023-01-08T22:14:55;9.80;99.90
38084;DHT22;23894;51.466;7.444;2023-01-08T22:16:56;9.80;99.90
38084;DHT22;23894;51.466;7.444;2023-01-08T22:18:56;9.90;99.90
38084;DHT22;23894;51.466;7.444;2023-01-08T22:21:07;9.90;99.90
38084;DHT22;23894;51.466;7.444;2023-01-08T22:23:08;9.90;99.90
38084;DHT22;23894;51.466;7.444;2023-01-08T22:25:09;9.90;99.90
38084;DHT22;23894;51.466;7.444;2023-01-08T22:27:09;9.90;99.90
38084;DHT22;23894;51.466;7.444;2023-01-08T22:29:10;9.90;99.90
38084;DHT22;23894;51.466;7.444;2023-01-08T22:31:13;9.90;99.90
38084;DHT22;23894;51.466;7.444;2023-01-08T22:33:14;9.90;99.90
38084;DHT22;23894;51.466;7.444;2023-01-08T22:35:14;9.90;99.90
38084;DHT22;23894;51.466;7.444;2023-01-08T22:37:15;9.90;99.90
38084;DHT22;23894;51.466;7.444;2023-01-08T22:39:18;9.90;99.90
38084;DHT22;23894;51.466;7.444;2023-01-08T22:41:22;9.90;99.90
38084;DHT22;23894;51.466;7.444;2023-01-08T22:43:24;9.90;99.90
38084;DHT22;23894;51.466;7.444;2023-01-08T22:45:24;9.90;99.90
38084;DHT22;23894;51.466;7.444;2023-01-08T22:47:25;9.80;99.90
38084;DHT22;23894;51.466;7.444;2023-01-08T22:49:25;9.90;99.90
38084;DHT22;23894;51.466;7.444;2023-01-08T22:51:26;9.80;99.90
38084;DHT22;23894;51.466;7.444;2023-01-08T22:53:27;9.80;99.90
38084;DHT22;23894;51.466;7.444;2023-01-08T22:55:27;9.80;99.90
38084;DHT22;23894;51.466;7.444;2023-01-08T22:57:28;9.80;99.90
38084;DHT22;23894;51.466;7.444;2023-01-08T23:03:15;9.80;99.90
38084;DHT22;23894;51.466;7.444;2023-01-08T23:05:18;9.70;99.90
38084;DHT22;23894;51.466;7.444;2023-01-08T23:07:21;9.70;99.90
38084;DHT22;23894;51.466;7.444;2023-01-08T23:09:23;9.70;99.90
38084;DHT22;23894;51.466;7.444;2023-01-08T23:11:26;9.70;99.90
38084;DHT22;23894;51.466;7.444;2023-01-08T23:13:28;9.70;99.90
38084;DHT22;23894;51.466;7.444;2023-01-08T23:15:30;9.70;99.90
38084;DHT22;23894;51.466;7.444;2023-01-08T23:17:32;9.70;99.90
38084;DHT22;23894;51.466;7.444;2023-01-08T23:19:37;9.70;99.90
38084;DHT22;23894;51.466;7.444;2023-01-08T23:21:40;9.70;99.90
38084;DHT22;23894;51.466;7.444;2023-01-08T23:23:43;9.70;99.90
38084;DHT22;23894;51.466;7.444;2023-01-08T23:25:47;9.70;99.90
38084;DHT22;23894;51.466;7.444;2023-01-08T23:27:49;9.80;99.90
38084;DHT22;23894;51.466;7.444;2023-01-08T23:29:52;9.80;99.90
38084;DHT22;23894;51.466;7.444;2023-01-08T23:31:59;9.80;99.90
38084;DHT22;23894;51.466;7.444;2023-01-08T23:34:01;9.80;99.90
38084;DHT22;23894;51.466;7.444;2023-01-08T23:36:04;9.80;99.90
38084;DHT22;23894;51.466;7.444;2023-01-08T23:38:06;9.80;99.90
38084;DHT22;23894;51.466;7.444;2023-01-08T23:40:09;9.80;99.90
38084;DHT22;23894;51.466;7.444;2023-01-08T23:42:11;9.80;99.90
38084;DHT22;23894;51.466;7.444;2023-01-08T23:44:14;9.80;99.90
38084;DHT22;23894;51.466;7.444;2023-01-08T23:46:17;9.70;99.90
38084;DHT22;23894;51.466;7.444;2023-01-08T23:48:17;9.70;99.90
38084;DHT22;23894;51.466;7.444;2023-01-08T23:50:19;9.70;99.90
38084;DHT22;23894;51.466;7.444;2023-01-08T23:52:21;9.70;99.90
38084;DHT22;23894;51.466;7.444;2023-01-08T23:54:23;9.60;99.90
38084;DHT22;23894;51.466;7.444;2023-01-08T23:56:25;9.60;99.90
38084;DHT22;23894;51.466;7.444;2023-01-08T23:58:27;9.60;99.90
